sensor_id;sensor_type;location;lat;lon;timestamp;P1;durP1;ratioP1;P2;durP2;ratioP2
19482;SDS011;9882;51.166;6.992;2023-12-07T00:02:20;32.15;;;11.65;;
19482;SDS011;9882;51.166;6.992;2023-12-07T00:04:49;24.45;;;10.27;;
19482;SDS011;9882;51.166;6.992;2023-12-07T00:07:19;28.92;;;12.25;;
19482;SDS011;9882;51.166;6.992;2023-12-07T00:09:47;25.77;;;11.68;;
19482;SDS011;9882;51.166;6.992;2023-12-07T00:12:16;26.38;;;10.93;;
19482;SDS011;9882;51.166;6.992;2023-12-07T00:14:46;24.83;;;10.15;;
19482;SDS011;9882;51.166;6.992;2023-12-07T00:17:16;23.90;;;10.63;;
19482;SDS011;9882;51.166;6.992;2023-12-07T00:19:46;36.78;;;12.50;;
19482;SDS011;9882;51.166;6.992;2023-12-07T00:22:15;26.10;;;10.32;;
19482;SDS011;9882;51.166;6.992;2023-12-07T00:24:44;26.73;;;10.70;;
19482;SDS011;9882;51.166;6.992;2023-12-07T00:27:13;27.95;;;11.07;;
19482;SDS011;9882;51.166;6.992;2023-12-07T00:29:42;30.67;;;11.48;;
19482;SDS011;9882;51.166;6.992;2023-12-07T00:32:12;23.17;;;9.82;;
19482;SDS011;9882;51.166;6.992;2023-12-07T00:34:42;22.65;;;10.35;;
19482;SDS011;9882;51.166;6.992;2023-12-07T00:37:12;24.02;;;10.20;;
19482;SDS011;9882;51.166;6.992;2023-12-07T00:39:41;32.45;;;12.25;;
19482;SDS011;9882;51.166;6.992;2023-12-07T00:42:10;22.80;;;11.10;;
19482;SDS011;9882;51.166;6.992;2023-12-07T00:44:39;23.33;;;10.02;;
19482;SDS011;9882;51.166;6.992;2023-12-07T00:47:09;30.63;;;11.65;;
19482;SDS011;9882;51.166;6.992;2023-12-07T00:49:39;22.83;;;9.70;;
19482;SDS011;9882;51.166;6.992;2023-12-07T00:52:10;27.90;;;10.73;;
19482;SDS011;9882;51.166;6.992;2023-12-07T00:54:39;30.90;;;11.52;;
19482;SDS011;9882;51.166;6.992;2023-12-07T00:57:11;31.25;;;12.23;;
19482;SDS011;9882;51.166;6.992;2023-12-07T00:59:40;25.42;;;11.35;;
19482;SDS011;9882;51.166;6.992;2023-12-07T01:02:09;29.80;;;11.13;;
19482;SDS011;9882;51.166;6.992;2023-12-07T01:04:38;25.60;;;10.88;;
19482;SDS011;9882;51.166;6.992;2023-12-07T01:07:07;22.65;;;9.65;;
19482;SDS011;9882;51.166;6.992;2023-12-07T01:09:38;26.63;;;10.98;;
19482;SDS011;9882;51.166;6.992;2023-12-07T01:12:07;24.65;;;10.43;;
19482;SDS011;9882;51.166;6.992;2023-12-07T01:14:36;26.95;;;11.70;;
19482;SDS011;9882;51.166;6.992;2023-12-07T01:17:05;29.02;;;11.25;;
19482;SDS011;9882;51.166;6.992;2023-12-07T01:19:34;24.65;;;10.93;;
19482;SDS011;9882;51.166;6.992;2023-12-07T01:22:03;27.23;;;10.60;;
19482;SDS011;9882;51.166;6.992;2023-12-07T01:24:33;25.20;;;10.07;;
19482;SDS011;9882;51.166;6.992;2023-12-07T01:27:03;27.00;;;11.00;;
19482;SDS011;9882;51.166;6.992;2023-12-07T01:29:32;28.70;;;11.80;;
19482;SDS011;9882;51.166;6.992;2023-12-07T01:32:01;27.35;;;11.68;;
19482;SDS011;9882;51.166;6.992;2023-12-07T01:34:30;23.85;;;10.60;;
19482;SDS011;9882;51.166;6.992;2023-12-07T01:36:59;26.40;;;11.88;;
19482;SDS011;9882;51.166;6.992;2023-12-07T01:39:28;27.52;;;11.18;;
19482;SDS011;9882;51.166;6.992;2023-12-07T01:41:59;28.20;;;11.48;;
19482;SDS011;9882;51.166;6.992;2023-12-07T01:44:28;26.67;;;11.82;;
19482;SDS011;9882;51.166;6.992;2023-12-07T01:46:57;24.48;;;10.95;;
19482;SDS011;9882;51.166;6.992;2023-12-07T01:49:26;31.58;;;11.77;;
19482;SDS011;9882;51.166;6.992;2023-12-07T01:51:56;29.42;;;11.75;;
19482;SDS011;9882;51.166;6.992;2023-12-07T01:54:25;31.10;;;12.23;;
19482;SDS011;9882;51.166;6.992;2023-12-07T01:56:54;28.65;;;11.80;;
19482;SDS011;9882;51.166;6.992;2023-12-07T01:59:25;24.67;;;11.68;;
19482;SDS011;9882;51.166;6.992;2023-12-07T02:01:54;27.20;;;11.95;;
19482;SDS011;9882;51.166;6.992;2023-12-07T02:04:26;31.60;;;13.57;;
19482;SDS011;9882;51.166;6.992;2023-12-07T02:06:58;31.38;;;12.85;;
19482;SDS011;9882;51.166;6.992;2023-12-07T02:09:31;30.80;;;12.30;;
19482;SDS011;9882;51.166;6.992;2023-12-07T02:12:00;28.42;;;11.35;;
19482;SDS011;9882;51.166;6.992;2023-12-07T02:14:31;26.15;;;11.25;;
19482;SDS011;9882;51.166;6.992;2023-12-07T02:17:01;25.05;;;10.10;;
19482;SDS011;9882;51.166;6.992;2023-12-07T02:19:47;30.35;;;11.82;;
19482;SDS011;9882;51.166;6.992;2023-12-07T02:22:25;28.88;;;11.93;;
19482;SDS011;9882;51.166;6.992;2023-12-07T02:25:03;28.33;;;10.88;;
19482;SDS011;9882;51.166;6.992;2023-12-07T02:27:39;43.80;;;11.77;;
19482;SDS011;9882;51.166;6.992;2023-12-07T02:30:09;28.30;;;10.35;;
19482;SDS011;9882;51.166;6.992;2023-12-07T02:32:39;30.65;;;13.07;;
19482;SDS011;9882;51.166;6.992;2023-12-07T02:35:10;28.08;;;12.48;;
19482;SDS011;9882;51.166;6.992;2023-12-07T02:37:43;27.63;;;12.13;;
19482;SDS011;9882;51.166;6.992;2023-12-07T02:40:15;34.85;;;13.98;;
19482;SDS011;9882;51.166;6.992;2023-12-07T02:42:47;28.77;;;11.23;;
19482;SDS011;9882;51.166;6.992;2023-12-07T02:45:17;27.33;;;12.40;;
19482;SDS011;9882;51.166;6.992;2023-12-07T02:47:47;26.40;;;11.40;;
19482;SDS011;9882;51.166;6.992;2023-12-07T02:50:16;36.95;;;12.35;;
19482;SDS011;9882;51.166;6.992;2023-12-07T02:52:45;28.52;;;11.95;;
19482;SDS011;9882;51.166;6.992;2023-12-07T02:55:16;32.63;;;13.18;;
19482;SDS011;9882;51.166;6.992;2023-12-07T02:57:45;28.00;;;11.80;;
19482;SDS011;9882;51.166;6.992;2023-12-07T03:00:18;31.95;;;14.77;;
19482;SDS011;9882;51.166;6.992;2023-12-07T03:02:49;33.10;;;13.43;;
19482;SDS011;9882;51.166;6.992;2023-12-07T03:05:18;35.28;;;14.35;;
19482;SDS011;9882;51.166;6.992;2023-12-07T03:07:47;23.48;;;10.20;;
19482;SDS011;9882;51.166;6.992;2023-12-07T03:10:16;30.50;;;14.02;;
19482;SDS011;9882;51.166;6.992;2023-12-07T03:12:45;27.17;;;12.30;;
19482;SDS011;9882;51.166;6.992;2023-12-07T03:15:15;28.52;;;11.80;;
19482;SDS011;9882;51.166;6.992;2023-12-07T03:17:46;32.28;;;13.80;;
19482;SDS011;9882;51.166;6.992;2023-12-07T03:20:16;27.02;;;11.88;;
19482;SDS011;9882;51.166;6.992;2023-12-07T03:22:45;32.42;;;12.38;;
19482;SDS011;9882;51.166;6.992;2023-12-07T03:25:14;30.13;;;12.20;;
19482;SDS011;9882;51.166;6.992;2023-12-07T03:27:43;31.50;;;13.35;;
19482;SDS011;9882;51.166;6.992;2023-12-07T03:30:12;29.45;;;13.00;;
19482;SDS011;9882;51.166;6.992;2023-12-07T03:32:45;36.97;;;16.15;;
19482;SDS011;9882;51.166;6.992;2023-12-07T03:35:14;40.45;;;16.45;;
19482;SDS011;9882;51.166;6.992;2023-12-07T03:37:43;36.22;;;14.57;;
19482;SDS011;9882;51.166;6.992;2023-12-07T03:40:13;32.63;;;13.43;;
19482;SDS011;9882;51.166;6.992;2023-12-07T03:42:41;36.08;;;15.90;;
19482;SDS011;9882;51.166;6.992;2023-12-07T03:45:12;37.78;;;16.42;;
19482;SDS011;9882;51.166;6.992;2023-12-07T03:47:41;32.08;;;14.02;;
19482;SDS011;9882;51.166;6.992;2023-12-07T03:50:13;30.38;;;12.95;;
19482;SDS011;9882;51.166;6.992;2023-12-07T03:52:43;36.15;;;14.38;;
19482;SDS011;9882;51.166;6.992;2023-12-07T03:55:14;38.80;;;15.10;;
19482;SDS011;9882;51.166;6.992;2023-12-07T03:57:43;40.35;;;15.77;;
19482;SDS011;9882;51.166;6.992;2023-12-07T04:00:12;34.22;;;14.95;;
19482;SDS011;9882;51.166;6.992;2023-12-07T04:02:41;48.92;;;17.15;;
19482;SDS011;9882;51.166;6.992;2023-12-07T04:05:17;32.80;;;14.50;;
19482;SDS011;9882;51.166;6.992;2023-12-07T04:07:46;38.55;;;15.75;;
19482;SDS011;9882;51.166;6.992;2023-12-07T04:10:15;35.30;;;14.38;;
19482;SDS011;9882;51.166;6.992;2023-12-07T04:12:46;30.70;;;13.05;;
19482;SDS011;9882;51.166;6.992;2023-12-07T04:15:18;33.88;;;13.85;;
19482;SDS011;9882;51.166;6.992;2023-12-07T04:17:47;36.60;;;15.57;;
19482;SDS011;9882;51.166;6.992;2023-12-07T04:20:18;34.25;;;13.75;;
19482;SDS011;9882;51.166;6.992;2023-12-07T04:22:47;32.95;;;13.65;;
19482;SDS011;9882;51.166;6.992;2023-12-07T04:25:16;45.65;;;16.02;;
19482;SDS011;9882;51.166;6.992;2023-12-07T04:27:45;32.58;;;14.05;;
19482;SDS011;9882;51.166;6.992;2023-12-07T04:30:15;35.78;;;13.73;;
19482;SDS011;9882;51.166;6.992;2023-12-07T04:32:43;37.10;;;14.70;;
19482;SDS011;9882;51.166;6.992;2023-12-07T04:35:13;34.50;;;14.98;;
19482;SDS011;9882;51.166;6.992;2023-12-07T04:37:46;37.72;;;15.00;;
19482;SDS011;9882;51.166;6.992;2023-12-07T04:40:15;35.28;;;13.95;;
19482;SDS011;9882;51.166;6.992;2023-12-07T04:42:43;31.83;;;13.65;;
19482;SDS011;9882;51.166;6.992;2023-12-07T04:45:13;40.00;;;15.00;;
19482;SDS011;9882;51.166;6.992;2023-12-07T04:47:42;33.92;;;13.60;;
19482;SDS011;9882;51.166;6.992;2023-12-07T04:50:13;36.72;;;13.93;;
19482;SDS011;9882;51.166;6.992;2023-12-07T04:52:42;35.90;;;16.38;;
19482;SDS011;9882;51.166;6.992;2023-12-07T04:55:12;30.60;;;13.45;;
19482;SDS011;9882;51.166;6.992;2023-12-07T04:57:42;35.53;;;13.98;;
19482;SDS011;9882;51.166;6.992;2023-12-07T05:00:11;37.60;;;15.50;;
19482;SDS011;9882;51.166;6.992;2023-12-07T05:02:41;37.60;;;13.73;;
19482;SDS011;9882;51.166;6.992;2023-12-07T05:05:10;35.13;;;14.75;;
19482;SDS011;9882;51.166;6.992;2023-12-07T05:07:39;41.67;;;16.92;;
19482;SDS011;9882;51.166;6.992;2023-12-07T05:10:09;32.88;;;13.52;;
19482;SDS011;9882;51.166;6.992;2023-12-07T05:12:39;41.78;;;15.95;;
19482;SDS011;9882;51.166;6.992;2023-12-07T05:15:08;33.50;;;14.70;;
19482;SDS011;9882;51.166;6.992;2023-12-07T05:17:37;33.95;;;13.88;;
19482;SDS011;9882;51.166;6.992;2023-12-07T05:20:06;36.47;;;14.50;;
19482;SDS011;9882;51.166;6.992;2023-12-07T05:22:36;45.25;;;16.55;;
19482;SDS011;9882;51.166;6.992;2023-12-07T05:25:05;30.60;;;13.05;;
19482;SDS011;9882;51.166;6.992;2023-12-07T05:27:35;33.20;;;14.77;;
19482;SDS011;9882;51.166;6.992;2023-12-07T05:30:14;40.55;;;15.95;;
19482;SDS011;9882;51.166;6.992;2023-12-07T05:32:44;38.00;;;14.20;;
19482;SDS011;9882;51.166;6.992;2023-12-07T05:35:14;37.00;;;14.80;;
19482;SDS011;9882;51.166;6.992;2023-12-07T05:37:43;30.13;;;12.95;;
19482;SDS011;9882;51.166;6.992;2023-12-07T05:40:15;29.85;;;12.75;;
19482;SDS011;9882;51.166;6.992;2023-12-07T05:42:49;42.17;;;16.58;;
19482;SDS011;9882;51.166;6.992;2023-12-07T05:45:19;40.10;;;13.80;;
19482;SDS011;9882;51.166;6.992;2023-12-07T05:47:48;32.05;;;13.77;;
19482;SDS011;9882;51.166;6.992;2023-12-07T05:50:17;35.65;;;14.75;;
19482;SDS011;9882;51.166;6.992;2023-12-07T05:52:47;38.80;;;16.77;;
19482;SDS011;9882;51.166;6.992;2023-12-07T05:55:16;36.60;;;14.98;;
19482;SDS011;9882;51.166;6.992;2023-12-07T05:57:45;36.13;;;15.43;;
19482;SDS011;9882;51.166;6.992;2023-12-07T06:00:15;32.45;;;13.80;;
19482;SDS011;9882;51.166;6.992;2023-12-07T06:02:48;32.72;;;14.50;;
19482;SDS011;9882;51.166;6.992;2023-12-07T06:14:22;36.10;;;13.80;;
19482;SDS011;9882;51.166;6.992;2023-12-07T06:16:51;34.42;;;13.00;;
19482;SDS011;9882;51.166;6.992;2023-12-07T06:19:21;33.22;;;13.60;;
19482;SDS011;9882;51.166;6.992;2023-12-07T06:21:49;31.55;;;13.63;;
19482;SDS011;9882;51.166;6.992;2023-12-07T06:24:18;34.83;;;15.48;;
19482;SDS011;9882;51.166;6.992;2023-12-07T06:26:50;35.83;;;13.55;;
19482;SDS011;9882;51.166;6.992;2023-12-07T06:29:18;32.58;;;13.38;;
19482;SDS011;9882;51.166;6.992;2023-12-07T06:31:47;32.72;;;14.50;;
19482;SDS011;9882;51.166;6.992;2023-12-07T06:34:16;36.25;;;13.68;;
19482;SDS011;9882;51.166;6.992;2023-12-07T06:36:46;31.30;;;14.18;;
19482;SDS011;9882;51.166;6.992;2023-12-07T06:39:14;29.63;;;12.52;;
19482;SDS011;9882;51.166;6.992;2023-12-07T06:41:43;32.35;;;12.88;;
19482;SDS011;9882;51.166;6.992;2023-12-07T06:44:11;30.67;;;13.07;;
19482;SDS011;9882;51.166;6.992;2023-12-07T06:46:40;33.50;;;13.57;;
19482;SDS011;9882;51.166;6.992;2023-12-07T06:49:08;32.58;;;13.27;;
19482;SDS011;9882;51.166;6.992;2023-12-07T06:51:39;27.55;;;11.85;;
19482;SDS011;9882;51.166;6.992;2023-12-07T06:54:09;31.65;;;12.23;;
19482;SDS011;9882;51.166;6.992;2023-12-07T06:56:38;31.60;;;13.00;;
19482;SDS011;9882;51.166;6.992;2023-12-07T06:59:06;33.08;;;12.98;;
19482;SDS011;9882;51.166;6.992;2023-12-07T07:01:35;32.10;;;12.80;;
19482;SDS011;9882;51.166;6.992;2023-12-07T07:04:04;29.98;;;12.18;;
19482;SDS011;9882;51.166;6.992;2023-12-07T07:06:33;33.55;;;11.93;;
19482;SDS011;9882;51.166;6.992;2023-12-07T07:09:02;36.08;;;13.77;;
19482;SDS011;9882;51.166;6.992;2023-12-07T07:11:33;29.75;;;11.50;;
19482;SDS011;9882;51.166;6.992;2023-12-07T07:14:02;29.10;;;11.65;;
19482;SDS011;9882;51.166;6.992;2023-12-07T07:16:31;26.95;;;11.40;;
19482;SDS011;9882;51.166;6.992;2023-12-07T07:19:00;35.45;;;11.52;;
19482;SDS011;9882;51.166;6.992;2023-12-07T07:21:28;27.90;;;10.93;;
19482;SDS011;9882;51.166;6.992;2023-12-07T07:23:57;27.55;;;10.88;;
19482;SDS011;9882;51.166;6.992;2023-12-07T07:26:26;24.23;;;10.77;;
19482;SDS011;9882;51.166;6.992;2023-12-07T07:28:56;33.00;;;12.65;;
19482;SDS011;9882;51.166;6.992;2023-12-07T07:31:24;33.65;;;14.18;;
19482;SDS011;9882;51.166;6.992;2023-12-07T07:33:53;34.97;;;12.00;;
19482;SDS011;9882;51.166;6.992;2023-12-07T07:36:21;31.30;;;11.30;;
19482;SDS011;9882;51.166;6.992;2023-12-07T07:38:50;29.30;;;13.35;;
19482;SDS011;9882;51.166;6.992;2023-12-07T07:41:18;33.53;;;12.85;;
19482;SDS011;9882;51.166;6.992;2023-12-07T07:43:47;27.60;;;11.85;;
19482;SDS011;9882;51.166;6.992;2023-12-07T07:46:18;33.50;;;11.05;;
19482;SDS011;9882;51.166;6.992;2023-12-07T07:48:47;31.42;;;11.63;;
19482;SDS011;9882;51.166;6.992;2023-12-07T07:51:16;30.15;;;12.50;;
19482;SDS011;9882;51.166;6.992;2023-12-07T07:53:44;29.15;;;11.50;;
19482;SDS011;9882;51.166;6.992;2023-12-07T07:56:13;29.23;;;11.27;;
19482;SDS011;9882;51.166;6.992;2023-12-07T07:58:41;26.92;;;10.38;;
19482;SDS011;9882;51.166;6.992;2023-12-07T08:01:10;25.30;;;11.30;;
19482;SDS011;9882;51.166;6.992;2023-12-07T08:03:41;26.77;;;10.93;;
19482;SDS011;9882;51.166;6.992;2023-12-07T08:06:10;31.40;;;11.10;;
19482;SDS011;9882;51.166;6.992;2023-12-07T08:08:39;28.77;;;12.10;;
19482;SDS011;9882;51.166;6.992;2023-12-07T08:11:07;31.67;;;11.23;;
19482;SDS011;9882;51.166;6.992;2023-12-07T08:13:36;29.08;;;10.80;;
19482;SDS011;9882;51.166;6.992;2023-12-07T08:16:07;26.52;;;9.93;;
19482;SDS011;9882;51.166;6.992;2023-12-07T08:18:36;23.42;;;9.02;;
19482;SDS011;9882;51.166;6.992;2023-12-07T08:21:06;28.25;;;11.02;;
19482;SDS011;9882;51.166;6.992;2023-12-07T08:23:35;23.08;;;9.20;;
19482;SDS011;9882;51.166;6.992;2023-12-07T08:26:04;25.88;;;10.32;;
19482;SDS011;9882;51.166;6.992;2023-12-07T08:28:33;29.75;;;11.55;;
19482;SDS011;9882;51.166;6.992;2023-12-07T08:31:01;21.45;;;9.25;;
19482;SDS011;9882;51.166;6.992;2023-12-07T08:33:30;31.42;;;11.48;;
19482;SDS011;9882;51.166;6.992;2023-12-07T08:36:01;30.60;;;10.45;;
19482;SDS011;9882;51.166;6.992;2023-12-07T08:38:31;24.58;;;10.10;;
19482;SDS011;9882;51.166;6.992;2023-12-07T08:40:59;26.92;;;10.10;;
19482;SDS011;9882;51.166;6.992;2023-12-07T08:43:28;28.10;;;9.85;;
19482;SDS011;9882;51.166;6.992;2023-12-07T08:45:58;21.48;;;9.57;;
19482;SDS011;9882;51.166;6.992;2023-12-07T08:48:27;24.95;;;9.77;;
19482;SDS011;9882;51.166;6.992;2023-12-07T08:50:55;23.50;;;9.13;;
19482;SDS011;9882;51.166;6.992;2023-12-07T08:53:24;23.40;;;8.75;;
19482;SDS011;9882;51.166;6.992;2023-12-07T08:55:54;23.67;;;8.98;;
19482;SDS011;9882;51.166;6.992;2023-12-07T08:58:23;27.20;;;9.57;;
19482;SDS011;9882;51.166;6.992;2023-12-07T09:00:51;29.27;;;9.88;;
19482;SDS011;9882;51.166;6.992;2023-12-07T09:03:20;23.10;;;9.73;;
19482;SDS011;9882;51.166;6.992;2023-12-07T09:05:56;30.70;;;10.07;;
19482;SDS011;9882;51.166;6.992;2023-12-07T09:08:25;22.98;;;9.90;;
19482;SDS011;9882;51.166;6.992;2023-12-07T09:10:55;19.58;;;8.73;;
19482;SDS011;9882;51.166;6.992;2023-12-07T09:13:23;28.15;;;11.07;;
19482;SDS011;9882;51.166;6.992;2023-12-07T09:15:52;31.65;;;11.10;;
19482;SDS011;9882;51.166;6.992;2023-12-07T09:18:21;24.27;;;9.48;;
19482;SDS011;9882;51.166;6.992;2023-12-07T09:20:52;24.67;;;9.93;;
19482;SDS011;9882;51.166;6.992;2023-12-07T09:23:21;22.70;;;9.43;;
19482;SDS011;9882;51.166;6.992;2023-12-07T09:25:49;26.38;;;10.02;;
19482;SDS011;9882;51.166;6.992;2023-12-07T09:28:20;25.55;;;8.90;;
19482;SDS011;9882;51.166;6.992;2023-12-07T09:30:49;25.08;;;10.02;;
19482;SDS011;9882;51.166;6.992;2023-12-07T09:33:18;25.15;;;9.75;;
19482;SDS011;9882;51.166;6.992;2023-12-07T09:35:47;24.88;;;9.98;;
19482;SDS011;9882;51.166;6.992;2023-12-07T09:38:16;28.70;;;10.27;;
19482;SDS011;9882;51.166;6.992;2023-12-07T09:40:45;21.40;;;9.50;;
19482;SDS011;9882;51.166;6.992;2023-12-07T09:43:15;25.85;;;10.00;;
19482;SDS011;9882;51.166;6.992;2023-12-07T09:45:45;25.80;;;9.40;;
19482;SDS011;9882;51.166;6.992;2023-12-07T09:48:15;26.13;;;10.07;;
19482;SDS011;9882;51.166;6.992;2023-12-07T09:50:45;23.80;;;9.40;;
19482;SDS011;9882;51.166;6.992;2023-12-07T09:53:14;35.55;;;11.13;;
19482;SDS011;9882;51.166;6.992;2023-12-07T09:55:43;20.70;;;8.70;;
19482;SDS011;9882;51.166;6.992;2023-12-07T09:58:11;22.98;;;8.75;;
19482;SDS011;9882;51.166;6.992;2023-12-07T10:00:40;24.90;;;9.88;;
19482;SDS011;9882;51.166;6.992;2023-12-07T10:03:10;25.85;;;9.27;;
19482;SDS011;9882;51.166;6.992;2023-12-07T10:05:55;24.55;;;10.05;;
19482;SDS011;9882;51.166;6.992;2023-12-07T10:08:26;27.88;;;10.38;;
19482;SDS011;9882;51.166;6.992;2023-12-07T10:11:02;26.80;;;10.75;;
19482;SDS011;9882;51.166;6.992;2023-12-07T10:13:35;22.63;;;9.20;;
19482;SDS011;9882;51.166;6.992;2023-12-07T10:16:05;26.17;;;9.18;;
19482;SDS011;9882;51.166;6.992;2023-12-07T10:18:40;24.77;;;9.50;;
19482;SDS011;9882;51.166;6.992;2023-12-07T10:21:09;29.08;;;10.73;;
19482;SDS011;9882;51.166;6.992;2023-12-07T10:23:37;30.30;;;10.35;;
19482;SDS011;9882;51.166;6.992;2023-12-07T10:26:07;27.50;;;9.70;;
19482;SDS011;9882;51.166;6.992;2023-12-07T10:28:37;29.17;;;10.65;;
19482;SDS011;9882;51.166;6.992;2023-12-07T10:31:08;26.27;;;9.75;;
19482;SDS011;9882;51.166;6.992;2023-12-07T10:33:37;26.05;;;10.52;;
19482;SDS011;9882;51.166;6.992;2023-12-07T10:36:09;26.35;;;10.15;;
19482;SDS011;9882;51.166;6.992;2023-12-07T10:38:38;25.55;;;10.70;;
19482;SDS011;9882;51.166;6.992;2023-12-07T10:41:09;27.23;;;9.80;;
19482;SDS011;9882;51.166;6.992;2023-12-07T10:43:42;25.70;;;10.30;;
19482;SDS011;9882;51.166;6.992;2023-12-07T10:46:13;23.45;;;8.88;;
19482;SDS011;9882;51.166;6.992;2023-12-07T10:48:45;25.95;;;10.90;;
19482;SDS011;9882;51.166;6.992;2023-12-07T10:51:17;25.23;;;9.32;;
19482;SDS011;9882;51.166;6.992;2023-12-07T10:53:51;27.35;;;10.30;;
19482;SDS011;9882;51.166;6.992;2023-12-07T10:56:23;23.15;;;10.18;;
19482;SDS011;9882;51.166;6.992;2023-12-07T10:59:00;24.60;;;10.48;;
19482;SDS011;9882;51.166;6.992;2023-12-07T11:01:29;30.48;;;9.98;;
19482;SDS011;9882;51.166;6.992;2023-12-07T11:04:00;27.98;;;10.82;;
19482;SDS011;9882;51.166;6.992;2023-12-07T11:06:30;25.10;;;9.63;;
19482;SDS011;9882;51.166;6.992;2023-12-07T11:08:59;27.42;;;10.60;;
19482;SDS011;9882;51.166;6.992;2023-12-07T11:11:31;28.48;;;9.32;;
19482;SDS011;9882;51.166;6.992;2023-12-07T11:14:07;26.40;;;9.93;;
19482;SDS011;9882;51.166;6.992;2023-12-07T11:16:39;25.75;;;10.65;;
19482;SDS011;9882;51.166;6.992;2023-12-07T11:22:13;23.67;;;9.27;;
19482;SDS011;9882;51.166;6.992;2023-12-07T11:24:52;33.85;;;10.77;;
19482;SDS011;9882;51.166;6.992;2023-12-07T11:27:29;20.98;;;8.90;;
19482;SDS011;9882;51.166;6.992;2023-12-07T11:29:58;27.50;;;9.48;;
19482;SDS011;9882;51.166;6.992;2023-12-07T11:32:28;25.02;;;9.82;;
19482;SDS011;9882;51.166;6.992;2023-12-07T11:35:01;25.48;;;9.40;;
19482;SDS011;9882;51.166;6.992;2023-12-07T11:40:29;22.38;;;9.05;;
19482;SDS011;9882;51.166;6.992;2023-12-07T11:42:58;22.58;;;9.48;;
19482;SDS011;9882;51.166;6.992;2023-12-07T11:45:38;24.65;;;10.35;;
19482;SDS011;9882;51.166;6.992;2023-12-07T11:48:08;22.40;;;9.23;;
19482;SDS011;9882;51.166;6.992;2023-12-07T11:50:59;25.60;;;9.40;;
19482;SDS011;9882;51.166;6.992;2023-12-07T11:53:29;26.23;;;9.55;;
19482;SDS011;9882;51.166;6.992;2023-12-07T11:55:59;21.65;;;8.88;;
19482;SDS011;9882;51.166;6.992;2023-12-07T11:58:29;22.98;;;8.52;;
19482;SDS011;9882;51.166;6.992;2023-12-07T12:01:00;21.77;;;8.15;;
19482;SDS011;9882;51.166;6.992;2023-12-07T12:03:29;24.90;;;9.88;;
19482;SDS011;9882;51.166;6.992;2023-12-07T12:06:01;24.88;;;9.05;;
19482;SDS011;9882;51.166;6.992;2023-12-07T12:08:32;22.90;;;9.70;;
19482;SDS011;9882;51.166;6.992;2023-12-07T12:11:00;28.13;;;9.93;;
19482;SDS011;9882;51.166;6.992;2023-12-07T12:13:29;21.63;;;9.45;;
19482;SDS011;9882;51.166;6.992;2023-12-07T12:16:01;19.67;;;7.68;;
19482;SDS011;9882;51.166;6.992;2023-12-07T12:18:32;23.00;;;8.55;;
19482;SDS011;9882;51.166;6.992;2023-12-07T12:21:03;21.25;;;8.43;;
19482;SDS011;9882;51.166;6.992;2023-12-07T12:23:35;20.33;;;8.55;;
19482;SDS011;9882;51.166;6.992;2023-12-07T12:26:04;23.83;;;9.50;;
19482;SDS011;9882;51.166;6.992;2023-12-07T12:28:34;22.13;;;8.10;;
19482;SDS011;9882;51.166;6.992;2023-12-07T12:31:09;23.70;;;8.88;;
19482;SDS011;9882;51.166;6.992;2023-12-07T12:33:39;22.88;;;8.82;;
19482;SDS011;9882;51.166;6.992;2023-12-07T12:36:10;22.63;;;8.30;;
19482;SDS011;9882;51.166;6.992;2023-12-07T12:38:39;21.40;;;8.57;;
19482;SDS011;9882;51.166;6.992;2023-12-07T12:41:08;17.50;;;7.75;;
19482;SDS011;9882;51.166;6.992;2023-12-07T12:43:37;22.38;;;8.93;;
19482;SDS011;9882;51.166;6.992;2023-12-07T12:46:07;26.45;;;9.57;;
19482;SDS011;9882;51.166;6.992;2023-12-07T12:48:37;24.02;;;8.85;;
19482;SDS011;9882;51.166;6.992;2023-12-07T12:51:23;17.77;;;8.68;;
19482;SDS011;9882;51.166;6.992;2023-12-07T12:53:54;24.33;;;7.75;;
19482;SDS011;9882;51.166;6.992;2023-12-07T12:56:25;27.60;;;8.98;;
19482;SDS011;9882;51.166;6.992;2023-12-07T12:58:55;23.10;;;8.70;;
19482;SDS011;9882;51.166;6.992;2023-12-07T13:01:26;25.30;;;9.38;;
19482;SDS011;9882;51.166;6.992;2023-12-07T13:03:56;24.48;;;8.73;;
19482;SDS011;9882;51.166;6.992;2023-12-07T13:06:26;18.60;;;7.85;;
19482;SDS011;9882;51.166;6.992;2023-12-07T13:08:56;25.75;;;8.68;;
19482;SDS011;9882;51.166;6.992;2023-12-07T13:11:25;21.17;;;8.25;;
19482;SDS011;9882;51.166;6.992;2023-12-07T13:13:55;20.27;;;8.57;;
19482;SDS011;9882;51.166;6.992;2023-12-07T13:16:24;21.27;;;8.50;;
19482;SDS011;9882;51.166;6.992;2023-12-07T13:18:54;21.85;;;8.32;;
19482;SDS011;9882;51.166;6.992;2023-12-07T13:21:23;23.45;;;7.95;;
19482;SDS011;9882;51.166;6.992;2023-12-07T13:23:54;22.60;;;9.10;;
19482;SDS011;9882;51.166;6.992;2023-12-07T13:26:26;19.58;;;8.30;;
19482;SDS011;9882;51.166;6.992;2023-12-07T13:28:55;18.30;;;7.63;;
19482;SDS011;9882;51.166;6.992;2023-12-07T13:31:24;23.65;;;8.35;;
19482;SDS011;9882;51.166;6.992;2023-12-07T13:33:53;20.10;;;7.53;;
19482;SDS011;9882;51.166;6.992;2023-12-07T13:36:23;26.48;;;8.77;;
19482;SDS011;9882;51.166;6.992;2023-12-07T13:38:56;19.80;;;8.00;;
19482;SDS011;9882;51.166;6.992;2023-12-07T13:41:25;33.58;;;11.27;;
19482;SDS011;9882;51.166;6.992;2023-12-07T13:43:54;23.50;;;9.30;;
19482;SDS011;9882;51.166;6.992;2023-12-07T13:46:22;23.05;;;8.40;;
19482;SDS011;9882;51.166;6.992;2023-12-07T13:48:52;29.77;;;8.77;;
19482;SDS011;9882;51.166;6.992;2023-12-07T13:51:21;23.83;;;7.95;;
19482;SDS011;9882;51.166;6.992;2023-12-07T13:53:50;17.83;;;7.68;;
19482;SDS011;9882;51.166;6.992;2023-12-07T13:56:25;18.35;;;7.15;;
19482;SDS011;9882;51.166;6.992;2023-12-07T13:58:54;20.23;;;8.43;;
19482;SDS011;9882;51.166;6.992;2023-12-07T14:01:23;21.90;;;7.07;;
19482;SDS011;9882;51.166;6.992;2023-12-07T14:03:53;19.40;;;7.55;;
19482;SDS011;9882;51.166;6.992;2023-12-07T14:06:22;20.65;;;6.80;;
19482;SDS011;9882;51.166;6.992;2023-12-07T14:08:53;15.90;;;7.20;;
19482;SDS011;9882;51.166;6.992;2023-12-07T14:11:23;24.40;;;8.52;;
19482;SDS011;9882;51.166;6.992;2023-12-07T14:13:53;23.75;;;7.25;;
19482;SDS011;9882;51.166;6.992;2023-12-07T14:16:22;21.42;;;7.28;;
19482;SDS011;9882;51.166;6.992;2023-12-07T14:18:53;17.88;;;6.88;;
19482;SDS011;9882;51.166;6.992;2023-12-07T14:21:23;18.90;;;7.60;;
19482;SDS011;9882;51.166;6.992;2023-12-07T14:23:54;25.08;;;8.05;;
19482;SDS011;9882;51.166;6.992;2023-12-07T14:26:22;19.55;;;7.40;;
19482;SDS011;9882;51.166;6.992;2023-12-07T14:28:51;15.98;;;6.53;;
19482;SDS011;9882;51.166;6.992;2023-12-07T14:31:22;22.08;;;8.10;;
19482;SDS011;9882;51.166;6.992;2023-12-07T14:33:51;18.92;;;7.30;;
19482;SDS011;9882;51.166;6.992;2023-12-07T14:36:20;16.35;;;6.90;;
19482;SDS011;9882;51.166;6.992;2023-12-07T14:38:49;18.95;;;6.72;;
19482;SDS011;9882;51.166;6.992;2023-12-07T14:41:18;20.05;;;7.88;;
19482;SDS011;9882;51.166;6.992;2023-12-07T14:43:49;15.82;;;7.03;;
19482;SDS011;9882;51.166;6.992;2023-12-07T14:46:20;24.00;;;7.55;;
19482;SDS011;9882;51.166;6.992;2023-12-07T14:48:49;18.13;;;6.47;;
19482;SDS011;9882;51.166;6.992;2023-12-07T14:51:18;19.75;;;7.40;;
19482;SDS011;9882;51.166;6.992;2023-12-07T14:53:48;22.27;;;8.45;;
19482;SDS011;9882;51.166;6.992;2023-12-07T14:56:17;17.48;;;7.15;;
19482;SDS011;9882;51.166;6.992;2023-12-07T14:58:46;20.55;;;7.20;;
19482;SDS011;9882;51.166;6.992;2023-12-07T15:01:15;17.23;;;7.00;;
19482;SDS011;9882;51.166;6.992;2023-12-07T15:03:45;19.50;;;7.25;;
19482;SDS011;9882;51.166;6.992;2023-12-07T15:06:14;19.02;;;6.88;;
19482;SDS011;9882;51.166;6.992;2023-12-07T15:08:43;20.85;;;7.25;;
19482;SDS011;9882;51.166;6.992;2023-12-07T15:11:12;17.33;;;7.43;;